Time;durP1;ratioP1;P1;durP2;ratioP2;P2;SDS_P1;SDS_P2;PMS_P1;PMS_P2;Temp;Humidity;BMP_temperature;BMP_pressure;BME280_temperature;BME280_humidity;BME280_pressure;Samples;Min_cycle;Max_cycle;Signal;HPM_P1;HPM_P2
2022/10/28 00:02:48;;;;;;;25.17;17.73;;;7.00;99.90;;;;;;8420019;28;20640;-68
2022/10/28 00:06:49;;;;;;;28.77;19.73;;;7.00;99.90;;;;;;8398359;28;20181;-69
2022/10/28 00:10:49;;;;;;;31.37;21.60;;;7.10;99.90;;;;;;8402504;28;20204;-69
2022/10/28 00:14:50;;;;;;;34.87;23.53;;;7.10;99.90;;;;;;8419058;28;20179;-69
2022/10/28 00:18:52;;;;;;;32.40;20.87;;;7.10;99.90;;;;;;8418700;28;20177;-69
2022/10/28 00:22:53;;;;;;;31.03;21.50;;;7.10;99.90;;;;;;8420171;28;20184;-68
2022/10/28 00:26:54;;;;;;;26.13;17.70;;;6.90;99.90;;;;;;8400432;28;20190;-69
2022/10/28 00:30:55;;;;;;;22.13;15.70;;;6.90;99.90;;;;;;8418712;28;20208;-69
2022/10/28 00:34:56;;;;;;;33.00;22.07;;;6.80;99.90;;;;;;8419369;28;20200;-69
2022/10/28 00:38:58;;;;;;;35.03;23.47;;;6.80;99.90;;;;;;8400452;28;20177;-68
2022/10/28 00:42:59;;;;;;;39.20;26.80;;;6.90;99.90;;;;;;8418894;28;20181;-68
2022/10/28 00:46:59;;;;;;;30.97;20.43;;;6.90;99.90;;;;;;8400489;28;20307;-69
2022/10/28 00:51:01;;;;;;;40.80;27.47;;;6.90;99.90;;;;;;8414682;28;20204;-68
2022/10/28 00:55:03;;;;;;;47.27;29.87;;;6.90;99.90;;;;;;8398747;28;20205;-69
2022/10/28 00:59:10;;;;;;;40.10;26.10;;;7.00;99.90;;;;;;8399476;28;20208;-68
2022/10/28 01:03:11;;;;;;;25.50;16.30;;;6.90;99.90;;;;;;8398143;28;20199;-70
2022/10/28 01:07:12;;;;;;;23.97;16.87;;;6.80;99.90;;;;;;8417709;28;20184;-70
2022/10/28 01:11:38;;;;;;;22.23;16.67;;;6.80;99.90;;;;;;8417608;28;20254;-69
2022/10/28 01:15:51;;;;;;;22.37;16.53;;;6.70;99.90;;;;;;8417141;28;20263;-69
2022/10/28 01:20:13;;;;;;;28.50;18.47;;;6.80;99.90;;;;;;8416241;28;20176;-68
2022/10/28 01:24:25;;;;;;;27.17;17.47;;;6.70;99.90;;;;;;8397530;28;20207;-69
2022/10/28 01:28:38;;;;;;;25.00;16.33;;;6.70;99.90;;;;;;8413898;28;20201;-68
2022/10/28 01:32:54;;;;;;;21.67;14.83;;;6.70;99.90;;;;;;8403475;28;20255;-69
2022/10/28 01:37:18;;;;;;;21.33;14.10;;;6.60;99.90;;;;;;8417249;28;20233;-69
2022/10/28 01:41:37;;;;;;;15.90;12.40;;;6.60;99.90;;;;;;8416589;28;20234;-68
2022/10/28 01:46:06;;;;;;;17.10;11.47;;;6.50;99.90;;;;;;8414653;28;20185;-69
2022/10/28 01:50:12;;;;;;;17.57;11.23;;;6.50;99.90;;;;;;8417219;28;20266;-68
2022/10/28 01:54:21;;;;;;;16.70;12.37;;;6.40;99.90;;;;;;8397975;28;20176;-68
2022/10/28 01:58:27;;;;;;;21.63;13.97;;;6.40;99.90;;;;;;8414074;28;20193;-69
2022/10/28 02:02:33;;;;;;;17.07;12.37;;;6.40;99.90;;;;;;8395085;28;20196;-68
2022/10/28 02:06:35;;;;;;;17.47;11.93;;;6.40;99.90;;;;;;8414911;28;20254;-69
2022/10/28 02:10:45;;;;;;;15.87;11.13;;;6.40;99.90;;;;;;8398155;28;20211;-69
2022/10/28 02:15:24;;;;;;;14.77;10.60;;;6.30;99.90;;;;;;8398559;28;20189;-69
2022/10/28 02:19:47;;;;;;;13.93;9.83;;;6.40;99.90;;;;;;8414635;28;20189;-69
2022/10/28 02:24:22;;;;;;;16.47;10.73;;;6.30;99.90;;;;;;8415429;28;20183;-68
2022/10/28 02:29:05;;;;;;;18.43;11.83;;;6.30;99.90;;;;;;8388207;28;20240;-68
2022/10/28 02:33:10;;;;;;;18.50;12.73;;;6.30;99.90;;;;;;8412415;28;20215;-68
2022/10/28 02:37:21;;;;;;;36.50;22.83;;;6.30;99.90;;;;;;8398318;28;20205;-68
2022/10/28 02:41:27;;;;;;;23.40;15.07;;;6.40;99.90;;;;;;8413848;28;20267;-69
2022/10/28 02:45:32;;;;;;;18.23;12.60;;;6.40;99.90;;;;;;8405554;28;20202;-69
2022/10/28 02:49:35;;;;;;;20.30;13.90;;;6.30;99.90;;;;;;8414112;28;20200;-69
2022/10/28 02:53:54;;;;;;;17.43;13.13;;;6.30;99.90;;;;;;8415435;28;20177;-69
2022/10/28 02:57:56;;;;;;;18.93;13.87;;;6.30;99.90;;;;;;8412730;28;20207;-69
2022/10/28 03:01:57;;;;;;;15.70;12.20;;;6.30;99.90;;;;;;8414267;28;20198;-68
2022/10/28 03:05:58;;;;;;;14.17;11.27;;;6.30;99.90;;;;;;8410615;28;20218;-68
2022/10/28 03:09:59;;;;;;;12.20;9.57;;;6.30;99.90;;;;;;8412902;28;20201;-69
2022/10/28 03:14:00;;;;;;;12.93;10.00;;;6.30;99.90;;;;;;8394249;28;20176;-68
2022/10/28 03:18:01;;;;;;;15.03;11.07;;;6.20;99.90;;;;;;8397456;28;20184;-68
2022/10/28 03:22:01;;;;;;;14.07;10.77;;;6.20;99.90;;;;;;8397410;28;20221;-70
2022/10/28 03:26:02;;;;;;;17.30;11.60;;;6.30;99.90;;;;;;8403228;28;20269;-69
2022/10/28 03:30:03;;;;;;;16.33;12.83;;;6.30;99.90;;;;;;8401761;28;20212;-68
2022/10/28 03:34:04;;;;;;;20.23;15.03;;;6.40;99.90;;;;;;8420222;28;20184;-68
2022/10/28 03:38:05;;;;;;;21.17;14.90;;;6.50;99.90;;;;;;8402516;28;20180;-69
2022/10/28 03:42:05;;;;;;;20.67;15.00;;;6.60;99.90;;;;;;8402106;28;20188;-69
2022/10/28 03:46:06;;;;;;;27.20;16.40;;;6.70;99.90;;;;;;8418879;28;20282;-69
2022/10/28 03:50:08;;;;;;;24.47;16.00;;;6.80;99.90;;;;;;8419246;28;20227;-68
2022/10/28 03:54:08;;;;;;;19.70;15.23;;;6.80;99.90;;;;;;8419977;28;20169;-68
2022/10/28 03:58:09;;;;;;;18.60;14.67;;;6.90;99.90;;;;;;8419022;28;20203;-69
2022/10/28 04:02:10;;;;;;;19.07;13.83;;;7.00;99.90;;;;;;8420250;28;20210;-68
2022/10/28 04:06:11;;;;;;;16.67;13.60;;;7.10;99.90;;;;;;8419168;28;20188;-70
2022/10/28 04:10:12;;;;;;;15.67;12.23;;;7.10;99.90;;;;;;8401734;28;20205;-69
2022/10/28 04:14:13;;;;;;;16.67;13.43;;;7.20;99.90;;;;;;8400545;28;20287;-69
2022/10/28 04:18:14;;;;;;;21.03;15.13;;;7.30;99.90;;;;;;8398504;28;20204;-69
2022/10/28 04:22:14;;;;;;;17.87;13.17;;;7.40;99.90;;;;;;8399936;28;20567;-69
2022/10/28 04:26:15;;;;;;;19.33;14.90;;;7.50;99.90;;;;;;8400295;28;20183;-68
2022/10/28 04:30:16;;;;;;;16.47;13.13;;;7.60;99.90;;;;;;8418508;28;20212;-68
2022/10/28 04:34:17;;;;;;;18.73;13.23;;;7.70;99.90;;;;;;8417821;28;20191;-68
2022/10/28 04:38:18;;;;;;;25.70;16.57;;;7.80;99.90;;;;;;8419107;28;20191;-68
2022/10/28 04:42:18;;;;;;;26.00;20.37;;;7.80;99.90;;;;;;8400337;28;20176;-68
2022/10/28 04:46:19;;;;;;;23.77;16.93;;;7.80;99.90;;;;;;8419276;28;20180;-69
2022/10/28 04:50:20;;;;;;;17.97;13.23;;;7.90;99.90;;;;;;8419378;28;20196;-70
2022/10/28 04:54:21;;;;;;;23.70;18.00;;;8.10;99.90;;;;;;8399602;28;20176;-69
2022/10/28 04:58:21;;;;;;;53.97;27.67;;;8.20;99.90;;;;;;8419421;28;20623;-69
2022/10/28 05:02:22;;;;;;;46.07;25.97;;;8.30;99.90;;;;;;8399998;28;20207;-68
2022/10/28 05:06:23;;;;;;;68.30;38.67;;;8.20;99.90;;;;;;8398522;28;20187;-69
2022/10/28 05:10:24;;;;;;;46.97;30.43;;;8.20;99.90;;;;;;8418004;28;20197;-68
2022/10/28 05:14:25;;;;;;;38.83;25.27;;;8.20;99.90;;;;;;8416353;28;20325;-69
2022/10/28 05:18:25;;;;;;;29.10;20.60;;;8.20;99.90;;;;;;8417334;28;20211;-69
2022/10/28 05:22:26;;;;;;;25.90;18.70;;;8.30;99.90;;;;;;8416915;28;20188;-69
2022/10/28 05:26:27;;;;;;;28.00;18.17;;;8.20;99.90;;;;;;8416996;28;20207;-69
2022/10/28 05:30:28;;;;;;;34.10;24.43;;;8.20;99.90;;;;;;8417017;28;20226;-69
2022/10/28 05:34:29;;;;;;;33.60;21.97;;;8.30;99.90;;;;;;8414705;28;20176;-71
2022/10/28 05:38:30;;;;;;;38.63;27.80;;;8.30;99.90;;;;;;8397975;28;20180;-69
2022/10/28 05:42:30;;;;;;;35.67;24.37;;;8.30;99.90;;;;;;8398969;28;20275;-69
2022/10/28 05:46:31;;;;;;;36.33;26.30;;;8.30;99.90;;;;;;8416770;28;20184;-69
2022/10/28 05:50:32;;;;;;;32.77;24.97;;;8.30;99.90;;;;;;8399363;28;20535;-69
2022/10/28 05:54:33;;;;;;;32.73;23.57;;;8.30;99.90;;;;;;8397497;28;20188;-68
2022/10/28 05:58:34;;;;;;;24.73;19.60;;;8.30;99.90;;;;;;8416510;28;20196;-68
2022/10/28 06:02:34;;;;;;;29.33;20.83;;;8.20;99.90;;;;;;8398297;28;20283;-69
2022/10/28 06:06:35;;;;;;;28.37;21.57;;;8.20;99.90;;;;;;8398299;28;20248;-70
2022/10/28 06:10:36;;;;;;;31.30;24.43;;;8.30;99.90;;;;;;8398777;28;20243;-68
2022/10/28 06:14:37;;;;;;;31.13;24.67;;;8.30;99.90;;;;;;8415877;28;20625;-69
2022/10/28 06:18:38;;;;;;;26.60;20.40;;;8.40;99.90;;;;;;8397538;28;20184;-68
2022/10/28 06:22:53;;;;;;;29.57;19.27;;;8.50;99.90;;;;;;8399877;28;20288;-68
2022/10/28 06:26:54;;;;;;;29.87;19.80;;;8.50;99.90;;;;;;8391532;28;20176;-69
2022/10/28 06:31:04;;;;;;;26.03;18.67;;;8.60;99.90;;;;;;8400991;28;20235;-69
2022/10/28 06:35:05;;;;;;;21.30;16.03;;;8.60;99.90;;;;;;8413375;28;20207;-69
2022/10/28 06:39:06;;;;;;;22.27;16.07;;;8.70;99.90;;;;;;8417124;28;20185;-69
2022/10/28 06:43:08;;;;;;;18.70;14.60;;;8.90;99.90;;;;;;8416695;28;20192;-69
2022/10/28 06:47:09;;;;;;;20.60;15.87;;;9.00;99.90;;;;;;8415439;28;20180;-69
2022/10/28 06:51:10;;;;;;;20.93;16.10;;;9.10;99.90;;;;;;8415499;28;20204;-69
2022/10/28 06:55:11;;;;;;;18.20;14.37;;;9.10;99.90;;;;;;8416035;28;20185;-68
2022/10/28 06:59:12;;;;;;;19.00;15.23;;;9.20;99.90;;;;;;8389252;28;20283;-68
2022/10/28 07:03:13;;;;;;;18.30;14.70;;;9.20;99.90;;;;;;8399436;28;20188;-69
2022/10/28 07:07:13;;;;;;;18.73;15.93;;;9.30;99.90;;;;;;8397982;28;20423;-69
2022/10/28 07:11:14;;;;;;;23.70;18.40;;;9.40;99.90;;;;;;8417544;28;20204;-70
2022/10/28 07:15:15;;;;;;;24.67;17.97;;;9.50;99.90;;;;;;8417187;28;20255;-69
2022/10/28 07:19:16;;;;;;;22.33;18.53;;;9.70;99.90;;;;;;8396791;28;20178;-69
2022/10/28 07:23:17;;;;;;;21.37;17.03;;;9.90;99.90;;;;;;8399832;28;20188;-69
2022/10/28 07:27:18;;;;;;;22.33;17.73;;;10.10;99.90;;;;;;8399385;28;20178;-69
2022/10/28 07:31:19;;;;;;;19.67;17.27;;;10.40;99.90;;;;;;8417738;28;20270;-68
2022/10/28 07:35:20;;;;;;;18.30;16.23;;;10.50;99.90;;;;;;8397475;28;20206;-69
2022/10/28 07:39:21;;;;;;;31.63;23.07;;;10.70;99.90;;;;;;8394971;28;20255;-69
2022/10/28 07:43:22;;;;;;;28.20;23.77;;;10.90;99.90;;;;;;8418246;28;20183;-69
2022/10/28 07:47:23;;;;;;;26.27;22.50;;;11.20;99.90;;;;;;8398020;28;20208;-69
2022/10/28 07:51:24;;;;;;;29.77;24.17;;;11.40;99.90;;;;;;8398662;28;20281;-70
2022/10/28 07:55:25;;;;;;;27.67;24.67;;;11.70;99.90;;;;;;8411776;28;20195;-68
2022/10/28 07:59:25;;;;;;;29.20;23.60;;;11.90;99.90;;;;;;8415156;28;20207;-69
2022/10/28 08:03:26;;;;;;;24.13;20.30;;;12.10;99.90;;;;;;8398937;28;20223;-70
2022/10/28 08:07:27;;;;;;;23.43;20.87;;;12.50;99.90;;;;;;8399347;28;20188;-70
2022/10/28 08:11:28;;;;;;;22.53;18.53;;;12.80;99.90;;;;;;8424907;28;20338;-70
2022/10/28 08:15:29;;;;;;;21.87;18.13;;;13.10;99.90;;;;;;8405257;28;20184;-70
2022/10/28 08:19:30;;;;;;;18.80;16.90;;;13.50;99.90;;;;;;8423345;28;20184;-70
2022/10/28 08:23:31;;;;;;;18.53;16.37;;;13.90;99.90;;;;;;8403062;28;20192;-70
2022/10/28 08:27:32;;;;;;;21.07;16.83;;;14.30;99.90;;;;;;8404447;28;20188;-69
2022/10/28 08:31:33;;;;;;;18.73;14.37;;;14.50;99.90;;;;;;8402393;28;20180;-70
2022/10/28 08:35:37;;;;;;;10.00;8.10;;;14.80;99.90;;;;;;8421545;28;20185;-70
2022/10/28 08:39:37;;;;;;;5.10;4.13;;;15.20;99.90;;;;;;8403752;28;20194;-70
2022/10/28 08:44:05;;;;;;;7.83;4.20;;;15.60;99.90;;;;;;8423439;28;20275;-70
2022/10/28 08:48:28;;;;;;;8.90;4.27;;;15.90;99.90;;;;;;8402466;28;20200;-69
2022/10/28 08:52:45;;;;;;;5.37;3.83;;;16.20;99.90;;;;;;8419411;28;20176;-69
2022/10/28 08:56:47;;;;;;;4.97;3.17;;;16.50;99.90;;;;;;8420989;28;20197;-70
2022/10/28 09:01:00;;;;;;;4.50;2.70;;;16.70;99.90;;;;;;8400114;28;20189;-70
2022/10/28 09:05:20;;;;;;;6.17;3.00;;;17.00;99.90;;;;;;8402610;28;20200;-70
2022/10/28 09:09:21;;;;;;;6.50;3.03;;;17.20;99.90;;;;;;8407203;28;20212;-70
2022/10/28 09:13:29;;;;;;;5.90;3.20;;;17.40;99.90;;;;;;8418472;28;20264;-71
2022/10/28 09:17:53;;;;;;;5.40;2.57;;;17.60;99.90;;;;;;8400428;28;20778;-69
2022/10/28 09:22:21;;;;;;;4.90;3.30;;;17.80;99.90;;;;;;8402680;28;20172;-70
2022/10/28 09:26:31;;;;;;;3.70;2.30;;;17.90;99.90;;;;;;8361601;28;20195;-70
2022/10/28 09:31:02;;;;;;;4.17;2.57;;;18.10;99.90;;;;;;8404151;28;20232;-70
2022/10/28 09:35:16;;;;;;;4.63;2.67;;;18.30;1.00;;;;;;8399140;28;20256;-70
2022/10/28 09:39:22;;;;;;;5.13;2.67;;;18.50;99.90;;;;;;8420192;28;20229;-70
2022/10/28 09:43:31;;;;;;;4.57;2.17;;;18.70;99.90;;;;;;8398676;28;20183;-70
2022/10/28 09:48:03;;;;;;;7.70;2.50;;;18.90;1.00;;;;;;8398939;28;20185;-69
2022/10/28 09:52:20;;;;;;;4.83;2.60;;;19.10;1.00;;;;;;8401747;28;20192;-70
2022/10/28 09:56:22;;;;;;;4.37;2.80;;;19.30;1.00;;;;;;8418322;28;20394;-69
2022/10/28 10:00:22;;;;;;;4.90;2.43;;;19.50;99.90;;;;;;8399372;28;20224;-69
2022/10/28 10:04:25;;;;;;;5.07;2.33;;;19.70;99.90;;;;;;8399101;28;20192;-70
2022/10/28 10:08:26;;;;;;;7.40;2.67;;;19.90;99.90;;;;;;8400374;28;20204;-69
2022/10/28 10:12:30;;;;;;;3.20;1.80;;;20.00;99.90;;;;;;8401047;28;20230;-70
2022/10/28 10:16:36;;;;;;;4.13;2.20;;;20.10;87.10;;;;;;8398646;28;20219;-70
2022/10/28 10:20:51;;;;;;;5.00;2.20;;;20.20;1.00;;;;;;8416633;28;20195;-70
2022/10/28 10:24:51;;;;;;;2.97;2.30;;;20.40;1.00;;;;;;8418673;28;20227;-70
2022/10/28 10:28:52;;;;;;;2.43;1.83;;;20.60;1.00;;;;;;8417915;28;20215;-69
2022/10/28 10:32:53;;;;;;;4.63;2.23;;;20.80;99.90;;;;;;8398358;28;20187;-70
2022/10/28 10:36:55;;;;;;;4.47;2.27;;;20.80;99.90;;;;;;8398884;28;20172;-70
2022/10/28 10:40:57;;;;;;;3.83;1.77;;;20.90;99.90;;;;;;8399495;28;20280;-70
2022/10/28 10:45:20;;;;;;;5.33;2.10;;;21.00;99.90;;;;;;8399426;28;20181;-69
2022/10/28 10:49:21;;;;;;;3.63;1.63;;;21.10;99.90;;;;;;8417540;28;20200;-70
2022/10/28 10:53:28;;;;;;;3.50;1.80;;;21.30;99.90;;;;;;8399963;28;20254;-69
2022/10/28 10:57:29;;;;;;;3.40;1.90;;;21.40;99.90;;;;;;8395353;28;20245;-70
2022/10/28 11:01:37;;;;;;;5.40;2.17;;;21.50;99.90;;;;;;8395003;28;20210;-70
2022/10/28 11:05:48;;;;;;;2.27;1.77;;;21.70;99.90;;;;;;8398522;28;20196;-70
2022/10/28 11:09:50;;;;;;;3.53;1.90;;;21.70;99.90;;;;;;8399776;28;20204;-70
2022/10/28 11:14:03;;;;;;;5.63;2.07;;;21.80;99.90;;;;;;8415633;28;20180;-70
2022/10/28 11:18:10;;;;;;;4.33;1.87;;;21.90;99.90;;;;;;8405878;28;20322;-70
2022/10/28 11:22:29;;;;;;;3.33;1.90;;;22.00;99.90;;;;;;8418441;28;20208;-69
2022/10/28 11:26:36;;;;;;;3.63;1.83;;;22.10;99.90;;;;;;8391419;28;20180;-70
2022/10/28 11:31:09;;;;;;;4.67;1.97;;;22.20;99.90;;;;;;8399951;28;20217;-71
2022/10/28 11:35:34;;;;;;;3.40;1.80;;;22.20;99.90;;;;;;8382879;28;20193;-69
2022/10/28 11:39:59;;;;;;;6.73;2.13;;;22.30;99.90;;;;;;8416797;28;20203;-69
2022/10/28 11:44:06;;;;;;;5.57;2.13;;;22.40;99.90;;;;;;8400142;28;20271;-71
2022/10/28 11:48:25;;;;;;;3.87;2.07;;;22.40;99.90;;;;;;8420531;28;20243;-70
2022/10/28 11:53:04;;;;;;;4.93;2.00;;;22.40;99.90;;;;;;8402440;28;20580;-71
2022/10/28 11:57:13;;;;;;;3.40;1.83;;;22.50;99.90;;;;;;8423202;28;20223;-69
2022/10/28 12:01:20;;;;;;;5.43;2.07;;;22.60;99.90;;;;;;8403979;28;20204;-70
2022/10/28 12:05:31;;;;;;;6.20;2.10;;;22.70;99.90;;;;;;8405387;28;20216;-70
2022/10/28 12:09:52;;;;;;;5.67;1.87;;;22.70;99.90;;;;;;8417727;28;20261;-70
2022/10/28 12:14:23;;;;;;;5.23;2.20;;;22.80;99.90;;;;;;8419816;28;20181;-70
2022/10/28 12:18:51;;;;;;;7.77;2.50;;;22.90;99.90;;;;;;8402141;28;20197;-69
2022/10/28 12:22:55;;;;;;;6.50;2.10;;;22.90;99.90;;;;;;8406084;28;20191;-71
2022/10/28 12:26:58;;;;;;;3.70;1.90;;;22.80;99.90;;;;;;8400768;28;20180;-70
2022/10/28 12:31:01;;;;;;;7.00;2.10;;;22.60;99.90;;;;;;8404522;28;20470;-70
2022/10/28 12:35:31;;;;;;;8.83;2.37;;;22.60;99.90;;;;;;8398705;28;20179;-70
2022/10/28 12:39:40;;;;;;;6.43;2.20;;;22.60;99.90;;;;;;8392226;28;20192;-71
2022/10/28 12:44:02;;;;;;;6.73;2.20;;;22.70;99.90;;;;;;8422488;28;20181;-69
2022/10/28 12:48:21;;;;;;;6.83;2.57;;;22.80;99.90;;;;;;8421325;28;20199;-70
2022/10/28 12:52:43;;;;;;;3.73;1.93;;;22.80;99.90;;;;;;8399545;28;20173;-70
2022/10/28 12:57:11;;;;;;;6.23;1.93;;;22.90;99.90;;;;;;8395721;28;20196;-70
2022/10/28 13:01:18;;;;;;;3.93;1.80;;;23.00;99.90;;;;;;8399074;28;20187;-70
2022/10/28 13:05:26;;;;;;;4.27;2.00;;;23.00;99.90;;;;;;8416022;28;20204;-70
2022/10/28 13:09:56;;;;;;;4.20;2.07;;;23.00;99.90;;;;;;8396386;28;20247;-70
2022/10/28 13:14:23;;;;;;;4.63;2.10;;;23.00;99.90;;;;;;8415204;28;20204;-70
2022/10/28 13:18:26;;;;;;;5.07;1.97;;;22.90;99.90;;;;;;8401948;28;20294;-72
2022/10/28 13:22:51;;;;;;;7.40;2.23;;;22.90;99.90;;;;;;8397751;28;20204;-70
2022/10/28 13:26:53;;;;;;;8.20;2.10;;;22.90;99.90;;;;;;8395171;28;20637;-70
2022/10/28 13:31:06;;;;;;;5.63;2.03;;;22.90;99.90;;;;;;8412834;28;20227;-69
2022/10/28 13:35:22;;;;;;;4.13;2.10;;;22.80;99.90;;;;;;8401903;28;20184;-70
2022/10/28 13:39:26;;;;;;;7.43;2.23;;;22.80;99.90;;;;;;8390014;28;20184;-67
2022/10/28 13:44:13;;;;;;;5.60;2.23;;;22.90;99.90;;;;;;8397441;28;20200;-70
2022/10/28 13:48:41;;;;;;;8.37;2.13;;;23.10;99.90;;;;;;8299415;28;20223;-70
2022/10/28 13:52:44;;;;;;;5.57;2.20;;;23.20;99.90;;;;;;8394016;28;20223;-70
2022/10/28 13:56:48;;;;;;;7.73;2.50;;;23.20;99.90;;;;;;8412650;28;20244;-70
2022/10/28 14:00:50;;;;;;;3.80;1.90;;;22.80;99.90;;;;;;8396381;28;20395;-71
2022/10/28 14:05:04;;;;;;;6.70;2.40;;;22.50;99.90;;;;;;8415590;28;20197;-71
2022/10/28 14:09:17;;;;;;;4.50;1.97;;;22.40;99.90;;;;;;8420572;28;20215;-71
2022/10/28 14:13:20;;;;;;;3.57;2.17;;;22.40;99.90;;;;;;8407839;28;20234;-71
2022/10/28 14:17:26;;;;;;;3.07;1.93;;;22.50;99.90;;;;;;8420091;28;20169;-71
2022/10/28 14:21:52;;;;;;;4.17;2.37;;;22.60;99.90;;;;;;8416343;28;20318;-70
2022/10/28 14:25:54;;;;;;;5.57;2.43;;;22.70;99.90;;;;;;8389899;28;20218;-70
2022/10/28 14:29:54;;;;;;;4.20;2.00;;;22.70;99.90;;;;;;8422556;28;20227;-72
2022/10/28 14:34:17;;;;;;;6.10;2.40;;;22.60;99.90;;;;;;8416924;28;20192;-71
2022/10/28 14:38:50;;;;;;;4.57;2.37;;;22.50;99.90;;;;;;8385980;28;20199;-72
2022/10/28 14:43:25;;;;;;;4.40;2.27;;;22.40;99.90;;;;;;8406497;28;20188;-71
2022/10/28 14:47:45;;;;;;;5.30;2.60;;;22.10;99.90;;;;;;8398196;28;20192;-71
2022/10/28 14:51:47;;;;;;;4.87;2.20;;;21.80;99.90;;;;;;8403848;28;20202;-71
2022/10/28 14:55:57;;;;;;;4.57;1.90;;;21.60;1.00;;;;;;8420211;28;20200;-71
2022/10/28 15:00:02;;;;;;;5.87;2.10;;;21.30;1.00;;;;;;8418764;28;20205;-70
2022/10/28 15:04:11;;;;;;;3.07;1.97;;;21.00;13.00;;;;;;8417030;28;20200;-70
2022/10/28 15:08:12;;;;;;;3.27;1.87;;;20.70;91.70;;;;;;8416729;28;20574;-70
2022/10/28 15:12:16;;;;;;;5.57;1.97;;;20.40;99.90;;;;;;8395423;28;20318;-70
2022/10/28 15:16:23;;;;;;;3.27;1.90;;;20.10;99.90;;;;;;8411062;28;20275;-71
2022/10/28 15:20:33;;;;;;;4.10;2.30;;;19.80;99.90;;;;;;8401690;28;20463;-70
2022/10/28 15:24:34;;;;;;;3.57;2.00;;;19.50;99.90;;;;;;8402053;28;20192;-70
2022/10/28 15:28:36;;;;;;;4.57;2.30;;;19.10;99.90;;;;;;8418943;28;20232;-70
2022/10/28 15:32:37;;;;;;;4.47;2.17;;;18.80;1.00;;;;;;8400611;28;20193;-70
2022/10/28 15:36:38;;;;;;;4.10;2.10;;;18.40;1.00;;;;;;8416186;28;20180;-70
2022/10/28 15:40:39;;;;;;;5.27;2.37;;;18.10;99.90;;;;;;8402050;28;20261;-70
2022/10/28 15:44:40;;;;;;;5.80;2.13;;;17.70;99.90;;;;;;8417708;28;20551;-70
2022/10/28 15:48:41;;;;;;;6.87;2.97;;;17.50;99.90;;;;;;8397223;28;20208;-70
2022/10/28 15:52:44;;;;;;;5.33;2.27;;;17.20;99.90;;;;;;8399669;28;20183;-71
2022/10/28 15:56:58;;;;;;;4.83;2.53;;;16.90;99.90;;;;;;8420107;28;20328;-70
2022/10/28 16:00:59;;;;;;;5.33;2.47;;;16.70;1.00;;;;;;8401052;28;20373;-70
2022/10/28 16:05:00;;;;;;;3.43;2.00;;;16.40;11.50;;;;;;8417682;28;20204;-69
2022/10/28 16:09:04;;;;;;;8.53;2.90;;;16.20;99.90;;;;;;8401699;28;20209;-69
2022/10/28 16:13:05;;;;;;;4.47;3.17;;;16.10;99.90;;;;;;8407181;28;20184;-70
2022/10/28 16:17:23;;;;;;;5.90;3.20;;;16.00;96.70;;;;;;8396161;28;20180;-70
2022/10/28 16:21:25;;;;;;;6.67;3.40;;;15.90;99.90;;;;;;8401376;28;20241;-69
2022/10/28 16:25:26;;;;;;;5.60;3.47;;;15.70;99.90;;;;;;8417288;28;20184;-69
2022/10/28 16:29:27;;;;;;;8.77;3.90;;;15.60;1.00;;;;;;8402772;28;20208;-70
2022/10/28 16:33:32;;;;;;;11.93;5.10;;;15.60;99.90;;;;;;8397086;28;20184;-70
2022/10/28 16:37:34;;;;;;;8.53;4.70;;;15.50;49.10;;;;;;8417453;28;20184;-69
2022/10/28 16:41:35;;;;;;;9.23;5.20;;;15.50;1.00;;;;;;8417309;28;20188;-70
2022/10/28 16:45:36;;;;;;;7.87;4.27;;;15.60;1.00;;;;;;8404090;28;20214;-70
2022/10/28 16:49:37;;;;;;;7.90;5.27;;;15.60;99.90;;;;;;8421172;28;20208;-71
2022/10/28 16:53:38;;;;;;;11.17;4.93;;;15.70;1.00;;;;;;8416895;28;20568;-69
2022/10/28 16:57:38;;;;;;;9.83;5.63;;;15.90;99.90;;;;;;8419062;28;20620;-70
2022/10/28 17:01:39;;;;;;;8.53;5.23;;;16.00;1.00;;;;;;8398870;28;20237;-69
2022/10/28 17:05:41;;;;;;;9.40;5.10;;;16.20;51.10;;;;;;8398671;28;20216;-69
2022/10/28 17:09:42;;;;;;;8.77;5.83;;;16.30;3.70;;;;;;8415921;28;20251;-70
2022/10/28 17:13:43;;;;;;;8.20;4.87;;;16.30;1.00;;;;;;8396478;28;20192;-70
2022/10/28 17:17:47;;;;;;;9.27;5.57;;;16.30;99.90;;;;;;8397606;28;20276;-70
2022/10/28 17:21:48;;;;;;;7.97;5.20;;;16.20;99.90;;;;;;8396553;28;20180;-69
2022/10/28 17:25:59;;;;;;;7.60;4.93;;;16.20;99.90;;;;;;8398379;28;20267;-71
2022/10/28 17:30:00;;;;;;;9.03;5.37;;;16.10;99.90;;;;;;8414884;28;20445;-69
2022/10/28 17:34:01;;;;;;;7.33;4.57;;;16.00;99.90;;;;;;8396592;28;20206;-70
2022/10/28 17:38:02;;;;;;;6.77;4.77;;;15.80;99.90;;;;;;8413173;28;20187;-70
2022/10/28 17:42:03;;;;;;;8.40;5.40;;;15.70;1.00;;;;;;8412551;28;20251;-70
2022/10/28 17:46:05;;;;;;;8.47;5.20;;;15.50;1.00;;;;;;8395969;28;20180;-69
2022/10/28 17:50:06;;;;;;;6.60;4.73;;;15.40;1.00;;;;;;8397993;28;20208;-69
2022/10/28 17:54:07;;;;;;;7.53;5.10;;;15.20;99.90;;;;;;8396881;28;20362;-69
2022/10/28 17:58:08;;;;;;;8.40;5.00;;;15.10;99.90;;;;;;8396835;28;20207;-69
2022/10/28 18:02:13;;;;;;;9.13;5.93;;;15.00;99.90;;;;;;8398201;28;20204;-70
2022/10/28 18:06:15;;;;;;;13.80;7.27;;;14.80;1.00;;;;;;8397240;28;20184;-69
2022/10/28 18:10:16;;;;;;;13.00;7.87;;;14.70;1.00;;;;;;8396700;28;20200;-69
2022/10/28 18:14:18;;;;;;;16.73;10.27;;;14.50;99.90;;;;;;8390874;28;20181;-69
2022/10/28 18:18:19;;;;;;;19.37;11.47;;;14.40;99.90;;;;;;8396336;28;20180;-69
2022/10/28 18:22:20;;;;;;;21.87;13.53;;;14.20;92.10;;;;;;8396580;28;20187;-69
2022/10/28 18:26:21;;;;;;;16.20;11.73;;;14.00;1.00;;;;;;8396250;28;20279;-69
2022/10/28 18:30:22;;;;;;;16.37;10.80;;;13.80;99.30;;;;;;8393985;28;20210;-69
2022/10/28 18:34:23;;;;;;;15.47;10.17;;;13.70;1.00;;;;;;8390603;28;20183;-69
2022/10/28 18:38:24;;;;;;;15.00;10.00;;;13.50;99.90;;;;;;8410667;28;20223;-69
2022/10/28 18:42:25;;;;;;;11.10;7.80;;;13.40;99.90;;;;;;8414998;28;20181;-69
2022/10/28 18:46:27;;;;;;;14.53;8.70;;;13.20;38.30;;;;;;8409525;28;20237;-69
2022/10/28 18:50:30;;;;;;;43.70;23.57;;;13.00;1.00;;;;;;8413298;28;20219;-69
2022/10/28 18:54:33;;;;;;;33.50;21.03;;;13.00;99.90;;;;;;8410812;28;20425;-69
2022/10/28 18:58:33;;;;;;;24.37;15.03;;;12.90;99.90;;;;;;8413720;28;20222;-69
2022/10/28 19:02:34;;;;;;;18.20;11.13;;;12.80;99.90;;;;;;8413961;28;20204;-69
2022/10/28 19:06:38;;;;;;;12.20;7.33;;;12.70;83.60;;;;;;8390897;28;20446;-69
2022/10/28 19:10:39;;;;;;;14.57;7.37;;;12.60;61.20;;;;;;8411446;28;20212;-69
2022/10/28 19:14:40;;;;;;;11.03;6.93;;;12.50;99.90;;;;;;8413547;28;20391;-69
2022/10/28 19:18:41;;;;;;;13.27;9.00;;;12.50;99.90;;;;;;8411686;28;20177;-69
2022/10/28 19:22:42;;;;;;;12.83;7.80;;;12.50;99.90;;;;;;8394719;28;20188;-69
2022/10/28 19:26:43;;;;;;;13.00;8.47;;;12.50;99.90;;;;;;8396129;28;20195;-69
2022/10/28 19:30:44;;;;;;;18.27;10.80;;;12.50;99.90;;;;;;8395326;28;20219;-69
2022/10/28 19:34:45;;;;;;;17.47;10.90;;;12.50;99.90;;;;;;8412132;28;20180;-69
2022/10/28 19:38:47;;;;;;;14.23;9.37;;;12.40;99.90;;;;;;8414539;28;20185;-69
2022/10/28 19:42:52;;;;;;;12.43;7.80;;;12.40;99.90;;;;;;8394271;28;20192;-69
2022/10/28 19:46:53;;;;;;;9.97;6.47;;;12.20;99.90;;;;;;8412125;28;20180;-69
2022/10/28 19:50:54;;;;;;;9.43;5.53;;;12.30;99.90;;;;;;8393318;28;20231;-70
2022/10/28 19:54:55;;;;;;;7.73;5.17;;;12.30;99.90;;;;;;8411855;28;20188;-71
2022/10/28 19:58:58;;;;;;;6.87;4.33;;;12.40;1.00;;;;;;8391289;28;20204;-69
2022/10/28 20:02:59;;;;;;;7.90;4.53;;;12.40;1.00;;;;;;8396450;28;20200;-69
2022/10/28 20:06:59;;;;;;;13.47;5.03;;;12.40;99.90;;;;;;8420502;28;20270;-70
2022/10/28 20:11:04;;;;;;;9.27;4.87;;;12.40;96.60;;;;;;8422945;28;20246;-70
2022/10/28 20:15:05;;;;;;;6.90;4.30;;;12.50;1.00;;;;;;8421067;28;20580;-69
2022/10/28 20:19:06;;;;;;;6.57;4.27;;;12.60;99.90;;;;;;8420735;28;20263;-69
2022/10/28 20:23:07;;;;;;;6.80;4.77;;;12.60;99.90;;;;;;8420236;28;20241;-69
2022/10/28 20:27:08;;;;;;;7.70;4.43;;;12.60;99.90;;;;;;8415755;28;20184;-70
2022/10/28 20:31:13;;;;;;;9.50;4.70;;;12.60;99.90;;;;;;8417368;28;20227;-71
2022/10/28 20:35:14;;;;;;;8.47;4.50;;;12.60;99.90;;;;;;8399096;28;20264;-70
2022/10/28 20:39:17;;;;;;;8.53;4.07;;;12.70;99.90;;;;;;8401396;28;20188;-69
2022/10/28 20:43:21;;;;;;;6.13;4.47;;;12.80;99.90;;;;;;8398326;28;20189;-68
2022/10/28 20:47:21;;;;;;;6.53;3.83;;;12.80;99.90;;;;;;8414782;28;20176;-69
2022/10/28 20:51:24;;;;;;;7.60;4.60;;;12.80;1.00;;;;;;8390949;28;20328;-69
2022/10/28 20:55:25;;;;;;;8.13;4.60;;;12.80;99.90;;;;;;8400236;28;20203;-69
2022/10/28 20:59:26;;;;;;;7.27;4.27;;;12.80;99.90;;;;;;8413581;28;20204;-69
2022/10/28 21:03:27;;;;;;;7.77;4.17;;;12.80;1.00;;;;;;8399017;28;20211;-70
2022/10/28 21:07:28;;;;;;;7.10;4.20;;;12.80;99.90;;;;;;8412254;28;20193;-70
2022/10/28 21:11:28;;;;;;;5.80;3.97;;;12.90;99.90;;;;;;8414166;28;20215;-70
2022/10/28 21:15:36;;;;;;;6.20;3.73;;;13.00;99.90;;;;;;8393642;28;20208;-69